createdAt,value
2019-05-02T00:03:05.816Z,6.40
2019-05-02T00:11:27.349Z,5.73
2019-05-02T00:15:37.847Z,6.03
2019-05-02T00:19:45.014Z,5.57
2019-05-02T00:23:48.255Z,5.40
2019-05-02T00:27:54.068Z,6.10
2019-05-02T00:31:59.781Z,6.57
2019-05-02T00:36:05.580Z,6.30
2019-05-02T00:40:11.588Z,6.37
2019-05-02T00:44:17.285Z,5.60
2019-05-02T00:48:42.727Z,6.00
2019-05-02T00:52:48.487Z,5.90
2019-05-02T00:56:54.217Z,6.00
2019-05-02T01:01:19.537Z,6.00
2019-05-02T01:05:25.468Z,5.77
2019-05-02T01:09:32.595Z,5.97
2019-05-02T01:13:38.370Z,5.87
2019-05-02T01:17:44.038Z,5.73
2019-05-02T01:21:49.718Z,5.27
2019-05-02T01:25:55.487Z,5.57
2019-05-02T01:30:15.711Z,5.87
2019-05-02T01:34:34.924Z,5.57
2019-05-02T01:38:45.342Z,6.20
2019-05-02T01:42:51.143Z,5.80
2019-05-02T01:46:58.765Z,6.27
2019-05-02T01:51:10.064Z,6.30
2019-05-02T01:55:11.968Z,5.87
2019-05-02T01:59:17.649Z,5.70
2019-05-02T02:03:23.339Z,6.43
2019-05-02T02:07:29.030Z,6.27
2019-05-02T02:11:35.854Z,6.73
2019-05-02T02:15:41.730Z,6.43
2019-05-02T02:19:49.021Z,6.60
2019-05-02T02:24:02.367Z,6.00
2019-05-02T02:28:08.254Z,6.77
2019-05-02T02:32:20.345Z,6.33
2019-05-02T02:36:31.370Z,7.20
2019-05-02T02:40:33.661Z,6.70
2019-05-02T02:44:41.979Z,6.77
2019-05-02T02:48:47.700Z,6.70
2019-05-02T02:52:53.388Z,6.77
2019-05-02T02:56:59.083Z,7.40
2019-05-02T03:01:05.388Z,7.23
2019-05-02T03:05:11.266Z,6.30
2019-05-02T03:09:20.126Z,7.43
2019-05-02T03:13:24.367Z,6.90
2019-05-02T03:17:30.038Z,7.27
2019-05-02T03:21:35.844Z,6.70
2019-05-02T03:25:50.562Z,6.53
2019-05-02T03:29:51.528Z,6.87
2019-05-02T03:34:00.829Z,6.70
2019-05-02T03:38:05.153Z,6.57
2019-05-02T03:42:11.049Z,6.90
2019-05-02T03:46:20.706Z,6.67
2019-05-02T03:50:32.375Z,6.97
2019-05-02T03:54:32.547Z,7.77
2019-05-02T03:58:38.526Z,6.93
2019-05-02T04:02:44.970Z,6.97
2019-05-02T04:06:55.055Z,6.73
2019-05-02T04:11:20.965Z,6.53
2019-05-02T04:15:28.839Z,6.23
2019-05-02T04:19:35.259Z,6.67
2019-05-02T04:23:42.865Z,6.47
2019-05-02T04:27:49.169Z,7.10
2019-05-02T04:31:54.881Z,7.40
2019-05-02T04:36:00.633Z,6.20
2019-05-02T04:40:11.989Z,6.53
2019-05-02T04:44:15.288Z,6.97
2019-05-02T04:48:20.981Z,7.17
2019-05-02T04:52:28.823Z,7.33
2019-05-02T04:56:42.121Z,7.53
2019-05-02T05:00:45.130Z,7.57
2019-05-02T05:04:49.566Z,7.00
2019-05-02T05:08:58.484Z,8.07
2019-05-02T05:13:03.625Z,7.63
2019-05-02T05:17:09.386Z,8.63
2019-05-02T05:21:17.618Z,8.13
2019-05-02T05:25:30.180Z,8.00
2019-05-02T05:29:37.477Z,8.23
2019-05-02T05:33:43.175Z,7.83
2019-05-02T05:37:52.899Z,8.90
2019-05-02T05:41:57.822Z,9.40
2019-05-02T05:46:12.312Z,8.63
2019-05-02T05:50:11.153Z,9.03
2019-05-02T05:54:17.827Z,9.53
2019-05-02T05:58:23.703Z,8.20
2019-05-02T06:02:29.379Z,9.03
2019-05-02T06:06:35.134Z,8.43
2019-05-02T06:10:43.903Z,9.23
2019-05-02T06:14:48.200Z,8.23
2019-05-02T06:18:54.160Z,9.43
2019-05-02T06:23:01.275Z,9.17
2019-05-02T06:27:07.060Z,9.87
2019-05-02T06:31:16.695Z,9.53
2019-05-02T06:35:22.401Z,8.83
2019-05-02T06:39:32.005Z,10.20
2019-05-02T06:43:36.504Z,9.63
2019-05-02T06:47:43.606Z,9.37
2019-05-02T06:51:50.989Z,9.90
2019-05-02T06:55:56.708Z,9.17
2019-05-02T07:00:02.615Z,10.40
2019-05-02T07:04:10.255Z,10.00
2019-05-02T07:08:16.112Z,10.53
2019-05-02T07:12:21.959Z,9.90
2019-05-02T07:16:38.407Z,10.00
2019-05-02T07:20:40.499Z,8.97
2019-05-02T07:24:44.215Z,8.40
2019-05-02T07:28:51.022Z,10.17
2019-05-02T07:33:01.157Z,7.90
2019-05-02T07:37:08.464Z,9.07
2019-05-02T07:41:12.149Z,9.57
2019-05-02T07:45:18.187Z,7.77
2019-05-02T07:49:26.603Z,6.80
2019-05-02T07:53:31.248Z,8.10
2019-05-02T07:57:36.955Z,10.33
2019-05-02T08:01:44.891Z,9.63
2019-05-02T08:05:54.432Z,10.07
2019-05-02T08:09:57.546Z,9.33
2019-05-02T08:14:03.319Z,10.07
2019-05-02T08:18:09.181Z,9.30
2019-05-02T08:22:15.064Z,9.70
2019-05-02T08:26:21.732Z,10.13
2019-05-02T08:30:29.779Z,9.90
2019-05-02T08:34:35.478Z,8.60
2019-05-02T08:38:41.186Z,9.07
2019-05-02T08:42:46.879Z,7.97
2019-05-02T08:46:53.285Z,9.87
2019-05-02T08:50:59.080Z,9.73
2019-05-02T08:55:09.733Z,9.30
2019-05-02T08:59:14.741Z,10.57
2019-05-02T09:03:20.515Z,10.63
2019-05-02T09:07:26.389Z,9.67
2019-05-02T09:11:32.054Z,9.70
2019-05-02T09:15:40.348Z,9.10
2019-05-02T09:19:59.176Z,8.27
2019-05-02T09:23:52.603Z,9.47
2019-05-02T09:27:58.300Z,8.53
2019-05-02T09:32:05.019Z,9.07
2019-05-02T09:36:11.894Z,10.73
2019-05-02T09:40:17.974Z,10.07
2019-05-02T09:44:23.666Z,11.23
2019-05-02T09:48:29.364Z,11.40
2019-05-02T09:52:39.592Z,10.43
2019-05-02T09:56:43.121Z,9.47
2019-05-02T10:00:56.256Z,10.53
2019-05-02T10:05:02.028Z,9.03
2019-05-02T10:09:11.918Z,9.83
2019-05-02T10:13:17.290Z,9.43
2019-05-02T10:17:28.791Z,9.57
2019-05-02T10:21:34.687Z,9.67
2019-05-02T10:26:20.086Z,8.00
2019-05-02T10:30:25.637Z,8.23
2019-05-02T10:34:32.975Z,8.90
2019-05-02T10:38:38.825Z,10.10
2019-05-02T10:42:44.531Z,9.57
2019-05-02T10:46:57.741Z,9.07
2019-05-02T10:51:25.587Z,8.33
2019-05-02T10:55:28.600Z,8.50
2019-05-02T10:59:34.290Z,9.83
2019-05-02T11:03:47.434Z,10.10
2019-05-02T11:07:52.361Z,9.30
2019-05-02T11:12:02.576Z,9.77
2019-05-02T11:16:15.441Z,10.53
2019-05-02T11:24:44.437Z,7.50
2019-05-02T11:28:52.001Z,10.50
2019-05-02T11:32:58.778Z,9.80
2019-05-02T11:37:04.731Z,11.87
2019-05-02T11:41:11.924Z,9.33
2019-05-02T11:45:17.795Z,10.13
2019-05-02T11:49:23.530Z,9.13
2019-05-02T11:53:29.650Z,10.33
2019-05-02T11:57:35.382Z,9.40
2019-05-02T12:01:42.729Z,10.03
2019-05-02T12:05:49.443Z,8.70
2019-05-02T12:14:48.976Z,8.43
2019-05-02T12:19:08.190Z,8.83
2019-05-02T12:23:02.228Z,7.50
2019-05-02T12:27:08.057Z,7.33
2019-05-02T12:31:22.160Z,8.43
2019-05-02T12:35:27.818Z,9.00
2019-05-02T12:39:33.513Z,7.03
2019-05-02T12:43:39.204Z,6.57
2019-05-02T12:47:45.128Z,7.53
2019-05-02T12:51:52.437Z,7.17
2019-05-02T12:55:58.325Z,6.20
2019-05-02T13:00:08.146Z,6.40
2019-05-02T13:04:14.314Z,6.27
2019-05-02T13:08:21.921Z,6.47
2019-05-02T13:12:29.085Z,6.23
2019-05-02T13:16:34.796Z,6.60
2019-05-02T13:20:41.740Z,6.22
2019-05-02T13:24:54.961Z,6.20
2019-05-02T13:28:59.657Z,6.00
2019-05-02T13:33:07.154Z,7.10
2019-05-02T13:42:18.359Z,5.80
2019-05-02T13:46:26.764Z,6.97
2019-05-02T13:50:31.831Z,7.00
2019-05-02T13:54:38.360Z,6.13
2019-05-02T13:58:44.015Z,6.70
2019-05-02T14:02:51.886Z,5.97
2019-05-02T14:06:57.309Z,6.57
2019-05-02T14:11:05.524Z,6.53
2019-05-02T14:15:13.834Z,6.28
2019-05-02T14:19:19.654Z,6.73
2019-05-02T14:23:27.102Z,6.80
2019-05-02T14:27:32.920Z,7.27
2019-05-02T14:31:38.609Z,6.87
2019-05-02T14:35:46.363Z,7.00
2019-05-02T14:39:53.698Z,6.50
2019-05-02T14:43:59.466Z,6.27
2019-05-02T14:48:18.416Z,6.80
2019-05-02T14:52:13.027Z,8.50
2019-05-02T17:37:22.675Z,5.77
2019-05-02T17:41:28.350Z,5.10
2019-05-02T17:45:38.491Z,5.07
2019-05-02T17:49:42.309Z,5.37
2019-05-02T17:53:57.248Z,6.00
2019-05-02T17:58:04.570Z,6.40
2019-05-02T18:02:12.442Z,6.57
2019-05-02T18:06:30.110Z,6.37
2019-05-02T18:10:25.678Z,6.63
2019-05-02T18:14:31.355Z,6.60
2019-05-02T18:18:46.746Z,6.67
2019-05-02T18:22:51.939Z,6.80
2019-05-02T18:26:57.888Z,15.17
2019-05-02T18:31:05.832Z,7.10
2019-05-02T18:35:12.712Z,6.60
2019-05-02T18:39:18.555Z,18.00
2019-05-02T18:43:24.305Z,6.43
2019-05-02T18:47:30.002Z,5.97
2019-05-02T18:51:35.746Z,6.40
2019-05-02T18:55:42.205Z,6.50
2019-05-02T18:59:52.080Z,6.73
2019-05-02T19:03:56.684Z,6.63
2019-05-02T19:08:02.677Z,6.30
2019-05-02T19:12:41.913Z,6.73
2019-05-02T19:16:47.540Z,6.17
2019-05-02T19:23:22.603Z,8.20
2019-05-02T19:27:30.095Z,7.03
2019-05-02T19:31:44.332Z,7.17
2019-05-02T19:35:46.938Z,6.97
2019-05-02T19:44:11.941Z,8.20
2019-05-02T19:48:22.850Z,8.38
2019-05-02T19:52:38.608Z,8.50
2019-05-02T19:56:52.384Z,8.53
2019-05-02T20:00:57.959Z,9.23
2019-05-02T20:05:04.293Z,10.07
2019-05-02T20:09:10.617Z,10.40
2019-05-02T20:13:20.283Z,10.47
2019-05-02T20:17:33.146Z,12.83
2019-05-02T20:22:24.349Z,12.13
2019-05-02T20:26:32.391Z,13.37
2019-05-02T20:30:38.042Z,12.45
2019-05-02T20:34:43.752Z,13.13
2019-05-02T20:38:49.543Z,13.70
2019-05-02T20:42:55.843Z,14.40
2019-05-02T20:47:02.563Z,14.40
2019-05-02T20:51:08.333Z,14.13
2019-05-02T20:55:14.597Z,14.85
2019-05-02T20:59:21.815Z,14.67
2019-05-02T21:03:27.684Z,15.43
2019-05-02T21:07:42.300Z,14.23
2019-05-02T21:11:49.829Z,15.37
2019-05-02T21:15:56.072Z,15.40
2019-05-02T21:20:02.046Z,14.90
2019-05-02T21:24:07.916Z,15.23
2019-05-02T21:28:13.618Z,15.90
2019-05-02T21:32:19.313Z,15.77
2019-05-02T21:36:25.972Z,16.67
2019-05-02T21:40:32.694Z,16.40
2019-05-02T21:44:38.542Z,15.80
2019-05-02T21:48:44.297Z,15.45
2019-05-02T21:53:07.307Z,16.33
2019-05-02T21:57:14.640Z,17.40
2019-05-02T22:01:22.228Z,16.30
2019-05-02T22:05:27.989Z,16.83
2019-05-02T22:09:33.742Z,16.07
2019-05-02T22:13:39.433Z,16.80
2019-05-02T22:21:53.620Z,16.20
2019-05-02T22:25:59.363Z,16.13
2019-05-02T22:30:07.899Z,16.60
2019-05-02T22:34:13.581Z,16.50
2019-05-02T22:38:37.030Z,16.00
2019-05-02T22:42:42.856Z,16.97
2019-05-02T22:46:48.628Z,20.27
2019-05-02T22:50:54.337Z,16.20
2019-05-02T22:55:00.023Z,16.47
2019-05-02T22:59:06.822Z,15.10
2019-05-02T23:03:12.797Z,15.40
2019-05-02T23:07:18.491Z,16.13
2019-05-02T23:11:24.528Z,15.90
2019-05-02T23:15:31.991Z,15.13
2019-05-02T23:19:37.879Z,16.00
2019-05-02T23:23:43.589Z,15.73
2019-05-02T23:27:51.887Z,16.90
2019-05-02T23:31:57.597Z,16.77
2019-05-02T23:36:03.342Z,15.80
2019-05-02T23:40:09.359Z,15.57
2019-05-02T23:44:15.048Z,15.70
2019-05-02T23:48:22.072Z,14.87
2019-05-02T23:52:27.776Z,14.07
2019-05-02T23:56:33.609Z,14.63
